sensor_id;sensor_type;location;lat;lon;timestamp;P1;durP1;ratioP1;P2;durP2;ratioP2
58468;SDS011;44257;44.804;10.220;2022-10-16T00:01:29;7.47;;;3.40;;
58468;SDS011;44257;44.804;10.220;2022-10-16T00:03:56;9.82;;;4.18;;
58468;SDS011;44257;44.804;10.220;2022-10-16T00:06:23;5.35;;;3.13;;
58468;SDS011;44257;44.804;10.220;2022-10-16T00:08:50;6.50;;;3.72;;
58468;SDS011;44257;44.804;10.220;2022-10-16T00:11:21;7.55;;;3.20;;
58468;SDS011;44257;44.804;10.220;2022-10-16T00:13:52;5.50;;;3.75;;
58468;SDS011;44257;44.804;10.220;2022-10-16T00:16:21;6.93;;;3.60;;
58468;SDS011;44257;44.804;10.220;2022-10-16T00:18:47;6.18;;;3.03;;
58468;SDS011;44257;44.804;10.220;2022-10-16T00:21:14;6.85;;;3.22;;
58468;SDS011;44257;44.804;10.220;2022-10-16T00:23:43;8.18;;;4.13;;
58468;SDS011;44257;44.804;10.220;2022-10-16T00:26:10;6.97;;;3.78;;
58468;SDS011;44257;44.804;10.220;2022-10-16T00:28:38;12.13;;;4.10;;
58468;SDS011;44257;44.804;10.220;2022-10-16T00:31:05;5.60;;;3.10;;
58468;SDS011;44257;44.804;10.220;2022-10-16T00:33:33;6.70;;;4.25;;
58468;SDS011;44257;44.804;10.220;2022-10-16T00:35:59;8.32;;;3.95;;
58468;SDS011;44257;44.804;10.220;2022-10-16T00:38:26;11.45;;;4.45;;
58468;SDS011;44257;44.804;10.220;2022-10-16T00:40:52;6.68;;;3.60;;
58468;SDS011;44257;44.804;10.220;2022-10-16T00:49:03;7.28;;;3.72;;
58468;SDS011;44257;44.804;10.220;2022-10-16T00:51:36;6.05;;;3.35;;
58468;SDS011;44257;44.804;10.220;2022-10-16T00:54:04;9.00;;;3.40;;
58468;SDS011;44257;44.804;10.220;2022-10-16T00:56:35;6.88;;;2.67;;
58468;SDS011;44257;44.804;10.220;2022-10-16T00:59:02;5.03;;;2.65;;
58468;SDS011;44257;44.804;10.220;2022-10-16T01:01:31;9.70;;;3.20;;
58468;SDS011;44257;44.804;10.220;2022-10-16T01:03:57;8.63;;;4.63;;
58468;SDS011;44257;44.804;10.220;2022-10-16T01:06:32;6.40;;;3.88;;
58468;SDS011;44257;44.804;10.220;2022-10-16T01:09:09;6.07;;;3.28;;
58468;SDS011;44257;44.804;10.220;2022-10-16T01:14:23;6.80;;;3.08;;
58468;SDS011;44257;44.804;10.220;2022-10-16T01:16:59;9.27;;;3.63;;
58468;SDS011;44257;44.804;10.220;2022-10-16T01:22:16;6.63;;;2.97;;
58468;SDS011;44257;44.804;10.220;2022-10-16T01:24:45;4.05;;;2.65;;
58468;SDS011;44257;44.804;10.220;2022-10-16T01:30:05;5.75;;;3.40;;
58468;SDS011;44257;44.804;10.220;2022-10-16T01:32:40;5.53;;;3.65;;
58468;SDS011;44257;44.804;10.220;2022-10-16T01:35:27;5.53;;;3.15;;
58468;SDS011;44257;44.804;10.220;2022-10-16T01:38:02;5.80;;;2.90;;
58468;SDS011;44257;44.804;10.220;2022-10-16T01:40:29;5.60;;;2.83;;
58468;SDS011;44257;44.804;10.220;2022-10-16T01:43:07;5.18;;;2.85;;
58468;SDS011;44257;44.804;10.220;2022-10-16T01:45:37;6.82;;;2.53;;
58468;SDS011;44257;44.804;10.220;2022-10-16T01:48:05;5.28;;;2.63;;
58468;SDS011;44257;44.804;10.220;2022-10-16T01:50:35;5.15;;;2.13;;
58468;SDS011;44257;44.804;10.220;2022-10-16T01:53:05;5.88;;;3.20;;
58468;SDS011;44257;44.804;10.220;2022-10-16T01:55:36;4.80;;;3.13;;
58468;SDS011;44257;44.804;10.220;2022-10-16T01:58:07;4.32;;;2.17;;
58468;SDS011;44257;44.804;10.220;2022-10-16T02:00:34;3.47;;;2.38;;
58468;SDS011;44257;44.804;10.220;2022-10-16T02:03:03;4.13;;;2.22;;
58468;SDS011;44257;44.804;10.220;2022-10-16T02:05:32;5.32;;;3.08;;
58468;SDS011;44257;44.804;10.220;2022-10-16T02:08:04;3.15;;;2.13;;
58468;SDS011;44257;44.804;10.220;2022-10-16T02:10:30;4.75;;;3.33;;
58468;SDS011;44257;44.804;10.220;2022-10-16T02:13:00;5.38;;;2.50;;
58468;SDS011;44257;44.804;10.220;2022-10-16T02:15:32;4.28;;;2.13;;
58468;SDS011;44257;44.804;10.220;2022-10-16T02:17:57;4.75;;;2.85;;
58468;SDS011;44257;44.804;10.220;2022-10-16T02:20:25;4.70;;;2.88;;
58468;SDS011;44257;44.804;10.220;2022-10-16T02:22:53;3.30;;;2.28;;
58468;SDS011;44257;44.804;10.220;2022-10-16T02:25:29;3.90;;;1.98;;
58468;SDS011;44257;44.804;10.220;2022-10-16T02:33:09;4.50;;;2.33;;
58468;SDS011;44257;44.804;10.220;2022-10-16T02:35:38;3.13;;;2.30;;
58468;SDS011;44257;44.804;10.220;2022-10-16T02:38:06;3.05;;;2.22;;
58468;SDS011;44257;44.804;10.220;2022-10-16T02:40:34;3.42;;;2.10;;
58468;SDS011;44257;44.804;10.220;2022-10-16T02:43:02;6.07;;;2.50;;
58468;SDS011;44257;44.804;10.220;2022-10-16T02:45:29;4.18;;;2.50;;
58468;SDS011;44257;44.804;10.220;2022-10-16T02:47:56;4.30;;;2.03;;
58468;SDS011;44257;44.804;10.220;2022-10-16T02:50:22;6.93;;;2.10;;
58468;SDS011;44257;44.804;10.220;2022-10-16T02:52:49;5.10;;;2.10;;
58468;SDS011;44257;44.804;10.220;2022-10-16T02:55:15;6.40;;;2.97;;
58468;SDS011;44257;44.804;10.220;2022-10-16T02:57:41;4.30;;;1.77;;
58468;SDS011;44257;44.804;10.220;2022-10-16T03:00:08;4.30;;;2.25;;
58468;SDS011;44257;44.804;10.220;2022-10-16T03:02:35;2.75;;;1.50;;
58468;SDS011;44257;44.804;10.220;2022-10-16T03:05:01;4.57;;;2.53;;
58468;SDS011;44257;44.804;10.220;2022-10-16T03:07:27;4.85;;;2.28;;
58468;SDS011;44257;44.804;10.220;2022-10-16T03:09:53;4.57;;;1.63;;
58468;SDS011;44257;44.804;10.220;2022-10-16T03:12:19;3.33;;;1.77;;
58468;SDS011;44257;44.804;10.220;2022-10-16T03:14:45;4.10;;;2.38;;
58468;SDS011;44257;44.804;10.220;2022-10-16T03:17:11;6.05;;;2.63;;
58468;SDS011;44257;44.804;10.220;2022-10-16T03:19:38;5.20;;;2.38;;
58468;SDS011;44257;44.804;10.220;2022-10-16T03:22:04;3.97;;;1.73;;
58468;SDS011;44257;44.804;10.220;2022-10-16T03:24:30;5.35;;;2.92;;
58468;SDS011;44257;44.804;10.220;2022-10-16T03:26:56;2.28;;;1.17;;
58468;SDS011;44257;44.804;10.220;2022-10-16T03:29:22;4.85;;;2.65;;
58468;SDS011;44257;44.804;10.220;2022-10-16T03:31:48;3.38;;;1.63;;
58468;SDS011;44257;44.804;10.220;2022-10-16T03:34:14;3.13;;;1.75;;
58468;SDS011;44257;44.804;10.220;2022-10-16T03:36:40;2.60;;;1.58;;
58468;SDS011;44257;44.804;10.220;2022-10-16T03:39:06;2.60;;;1.25;;
58468;SDS011;44257;44.804;10.220;2022-10-16T03:41:32;4.38;;;2.17;;
58468;SDS011;44257;44.804;10.220;2022-10-16T03:43:58;3.88;;;1.95;;
58468;SDS011;44257;44.804;10.220;2022-10-16T03:46:24;4.45;;;2.65;;
58468;SDS011;44257;44.804;10.220;2022-10-16T03:48:49;5.80;;;2.42;;
58468;SDS011;44257;44.804;10.220;2022-10-16T03:51:15;5.22;;;2.85;;
58468;SDS011;44257;44.804;10.220;2022-10-16T03:53:41;7.47;;;1.80;;
58468;SDS011;44257;44.804;10.220;2022-10-16T03:56:07;4.55;;;2.33;;
58468;SDS011;44257;44.804;10.220;2022-10-16T03:58:33;5.80;;;2.53;;
58468;SDS011;44257;44.804;10.220;2022-10-16T04:00:59;6.47;;;2.88;;
58468;SDS011;44257;44.804;10.220;2022-10-16T04:03:24;10.52;;;3.00;;
58468;SDS011;44257;44.804;10.220;2022-10-16T04:05:50;4.68;;;2.78;;
58468;SDS011;44257;44.804;10.220;2022-10-16T04:08:16;6.32;;;3.00;;
58468;SDS011;44257;44.804;10.220;2022-10-16T04:10:43;5.22;;;1.95;;
58468;SDS011;44257;44.804;10.220;2022-10-16T04:13:09;4.88;;;2.97;;
58468;SDS011;44257;44.804;10.220;2022-10-16T04:15:35;2.38;;;1.40;;
58468;SDS011;44257;44.804;10.220;2022-10-16T04:18:01;5.13;;;2.85;;
58468;SDS011;44257;44.804;10.220;2022-10-16T04:20:28;3.53;;;2.03;;
58468;SDS011;44257;44.804;10.220;2022-10-16T04:22:55;5.47;;;2.45;;
58468;SDS011;44257;44.804;10.220;2022-10-16T04:25:21;6.30;;;2.60;;
58468;SDS011;44257;44.804;10.220;2022-10-16T04:27:47;4.30;;;2.33;;
58468;SDS011;44257;44.804;10.220;2022-10-16T04:30:12;6.20;;;3.40;;
58468;SDS011;44257;44.804;10.220;2022-10-16T04:32:39;5.57;;;3.05;;
58468;SDS011;44257;44.804;10.220;2022-10-16T04:35:05;6.97;;;4.35;;
58468;SDS011;44257;44.804;10.220;2022-10-16T04:37:32;5.30;;;2.85;;
58468;SDS011;44257;44.804;10.220;2022-10-16T04:39:58;6.45;;;2.47;;
58468;SDS011;44257;44.804;10.220;2022-10-16T04:42:23;7.10;;;3.90;;
58468;SDS011;44257;44.804;10.220;2022-10-16T04:44:49;7.20;;;4.22;;
58468;SDS011;44257;44.804;10.220;2022-10-16T04:47:15;7.45;;;4.03;;
58468;SDS011;44257;44.804;10.220;2022-10-16T04:49:41;6.30;;;3.88;;
58468;SDS011;44257;44.804;10.220;2022-10-16T04:52:07;8.65;;;4.65;;
58468;SDS011;44257;44.804;10.220;2022-10-16T04:54:34;8.73;;;4.03;;
58468;SDS011;44257;44.804;10.220;2022-10-16T04:57:00;6.55;;;4.43;;
58468;SDS011;44257;44.804;10.220;2022-10-16T04:59:26;11.18;;;4.68;;
58468;SDS011;44257;44.804;10.220;2022-10-16T05:01:52;8.35;;;3.88;;
58468;SDS011;44257;44.804;10.220;2022-10-16T05:04:18;6.47;;;3.88;;
58468;SDS011;44257;44.804;10.220;2022-10-16T05:06:43;5.93;;;3.55;;
58468;SDS011;44257;44.804;10.220;2022-10-16T05:09:09;7.03;;;4.57;;
58468;SDS011;44257;44.804;10.220;2022-10-16T05:11:35;6.10;;;3.63;;
58468;SDS011;44257;44.804;10.220;2022-10-16T05:14:01;6.65;;;3.42;;
58468;SDS011;44257;44.804;10.220;2022-10-16T05:16:27;7.28;;;4.68;;
58468;SDS011;44257;44.804;10.220;2022-10-16T05:18:55;10.05;;;4.65;;
58468;SDS011;44257;44.804;10.220;2022-10-16T05:21:21;6.38;;;3.45;;
58468;SDS011;44257;44.804;10.220;2022-10-16T05:23:47;5.70;;;3.83;;
58468;SDS011;44257;44.804;10.220;2022-10-16T05:26:13;6.55;;;4.70;;
58468;SDS011;44257;44.804;10.220;2022-10-16T05:28:39;6.38;;;3.97;;
58468;SDS011;44257;44.804;10.220;2022-10-16T05:31:05;6.50;;;3.60;;
58468;SDS011;44257;44.804;10.220;2022-10-16T05:33:32;6.68;;;3.17;;
58468;SDS011;44257;44.804;10.220;2022-10-16T05:36:16;8.00;;;4.07;;
58468;SDS011;44257;44.804;10.220;2022-10-16T05:38:43;6.88;;;3.13;;
58468;SDS011;44257;44.804;10.220;2022-10-16T05:41:09;5.85;;;4.03;;
58468;SDS011;44257;44.804;10.220;2022-10-16T05:43:35;4.00;;;2.00;;
58468;SDS011;44257;44.804;10.220;2022-10-16T05:46:03;4.47;;;3.15;;
58468;SDS011;44257;44.804;10.220;2022-10-16T05:48:30;5.25;;;3.13;;
58468;SDS011;44257;44.804;10.220;2022-10-16T05:51:00;7.47;;;4.32;;
58468;SDS011;44257;44.804;10.220;2022-10-16T05:53:28;4.38;;;2.72;;
58468;SDS011;44257;44.804;10.220;2022-10-16T05:55:57;4.03;;;2.40;;
58468;SDS011;44257;44.804;10.220;2022-10-16T05:58:24;4.00;;;2.08;;
58468;SDS011;44257;44.804;10.220;2022-10-16T06:00:53;4.32;;;2.50;;
58468;SDS011;44257;44.804;10.220;2022-10-16T06:03:24;5.03;;;2.83;;
58468;SDS011;44257;44.804;10.220;2022-10-16T06:05:50;4.07;;;1.80;;
58468;SDS011;44257;44.804;10.220;2022-10-16T06:08:16;4.15;;;2.47;;
58468;SDS011;44257;44.804;10.220;2022-10-16T06:10:43;3.80;;;1.90;;
58468;SDS011;44257;44.804;10.220;2022-10-16T06:13:11;3.88;;;2.05;;
58468;SDS011;44257;44.804;10.220;2022-10-16T06:15:37;2.85;;;1.95;;
58468;SDS011;44257;44.804;10.220;2022-10-16T06:18:04;4.65;;;1.52;;
58468;SDS011;44257;44.804;10.220;2022-10-16T06:20:30;4.32;;;1.38;;
58468;SDS011;44257;44.804;10.220;2022-10-16T06:22:56;2.45;;;1.50;;
58468;SDS011;44257;44.804;10.220;2022-10-16T06:25:22;3.58;;;2.00;;
58468;SDS011;44257;44.804;10.220;2022-10-16T06:27:48;3.30;;;1.90;;
58468;SDS011;44257;44.804;10.220;2022-10-16T06:30:14;4.70;;;2.28;;
58468;SDS011;44257;44.804;10.220;2022-10-16T06:32:40;4.95;;;3.28;;
58468;SDS011;44257;44.804;10.220;2022-10-16T06:35:05;3.53;;;2.45;;
58468;SDS011;44257;44.804;10.220;2022-10-16T06:37:33;3.13;;;1.73;;
58468;SDS011;44257;44.804;10.220;2022-10-16T06:39:58;3.47;;;2.42;;
58468;SDS011;44257;44.804;10.220;2022-10-16T06:42:25;4.10;;;2.38;;
58468;SDS011;44257;44.804;10.220;2022-10-16T06:44:51;5.55;;;2.92;;
58468;SDS011;44257;44.804;10.220;2022-10-16T06:47:17;5.63;;;2.17;;
58468;SDS011;44257;44.804;10.220;2022-10-16T06:49:43;2.83;;;1.90;;
58468;SDS011;44257;44.804;10.220;2022-10-16T06:52:08;3.80;;;1.98;;
58468;SDS011;44257;44.804;10.220;2022-10-16T06:54:34;4.80;;;2.53;;
58468;SDS011;44257;44.804;10.220;2022-10-16T06:57:00;4.53;;;1.88;;
58468;SDS011;44257;44.804;10.220;2022-10-16T06:59:26;3.63;;;1.77;;
58468;SDS011;44257;44.804;10.220;2022-10-16T07:01:52;2.60;;;1.67;;
58468;SDS011;44257;44.804;10.220;2022-10-16T07:04:18;4.53;;;1.60;;
58468;SDS011;44257;44.804;10.220;2022-10-16T07:06:44;3.17;;;1.75;;
58468;SDS011;44257;44.804;10.220;2022-10-16T07:09:10;3.97;;;1.98;;
58468;SDS011;44257;44.804;10.220;2022-10-16T07:11:37;4.97;;;2.30;;
58468;SDS011;44257;44.804;10.220;2022-10-16T07:14:04;3.97;;;2.17;;
58468;SDS011;44257;44.804;10.220;2022-10-16T07:16:30;5.15;;;2.38;;
58468;SDS011;44257;44.804;10.220;2022-10-16T07:18:58;4.68;;;2.67;;
58468;SDS011;44257;44.804;10.220;2022-10-16T07:21:27;3.55;;;2.42;;
58468;SDS011;44257;44.804;10.220;2022-10-16T07:23:54;10.23;;;5.13;;
58468;SDS011;44257;44.804;10.220;2022-10-16T07:26:24;9.45;;;4.78;;
58468;SDS011;44257;44.804;10.220;2022-10-16T07:28:52;13.43;;;6.60;;
58468;SDS011;44257;44.804;10.220;2022-10-16T07:31:19;13.75;;;6.18;;
58468;SDS011;44257;44.804;10.220;2022-10-16T07:33:46;12.43;;;7.35;;
58468;SDS011;44257;44.804;10.220;2022-10-16T07:36:14;14.57;;;8.27;;
58468;SDS011;44257;44.804;10.220;2022-10-16T07:38:41;19.90;;;9.32;;
58468;SDS011;44257;44.804;10.220;2022-10-16T07:41:09;16.17;;;9.50;;
58468;SDS011;44257;44.804;10.220;2022-10-16T07:43:37;16.75;;;9.32;;
58468;SDS011;44257;44.804;10.220;2022-10-16T07:46:04;19.50;;;10.40;;
58468;SDS011;44257;44.804;10.220;2022-10-16T07:48:30;19.63;;;10.15;;
58468;SDS011;44257;44.804;10.220;2022-10-16T07:51:02;17.55;;;10.05;;
58468;SDS011;44257;44.804;10.220;2022-10-16T07:53:30;17.85;;;11.25;;
58468;SDS011;44257;44.804;10.220;2022-10-16T07:55:57;22.60;;;10.80;;
58468;SDS011;44257;44.804;10.220;2022-10-16T07:58:28;21.08;;;12.07;;
58468;SDS011;44257;44.804;10.220;2022-10-16T08:00:55;18.75;;;11.15;;
58468;SDS011;44257;44.804;10.220;2022-10-16T08:03:22;16.67;;;11.18;;
58468;SDS011;44257;44.804;10.220;2022-10-16T08:05:48;23.65;;;11.60;;
58468;SDS011;44257;44.804;10.220;2022-10-16T08:08:18;25.58;;;11.35;;
58468;SDS011;44257;44.804;10.220;2022-10-16T08:10:44;20.08;;;12.63;;
58468;SDS011;44257;44.804;10.220;2022-10-16T08:13:10;29.33;;;13.90;;
58468;SDS011;44257;44.804;10.220;2022-10-16T08:15:39;24.77;;;13.23;;
58468;SDS011;44257;44.804;10.220;2022-10-16T08:18:06;21.15;;;11.90;;
58468;SDS011;44257;44.804;10.220;2022-10-16T08:20:32;23.00;;;12.10;;
58468;SDS011;44257;44.804;10.220;2022-10-16T08:22:59;22.10;;;13.48;;
58468;SDS011;44257;44.804;10.220;2022-10-16T08:25:25;26.77;;;13.68;;
58468;SDS011;44257;44.804;10.220;2022-10-16T08:27:51;26.58;;;13.00;;
58468;SDS011;44257;44.804;10.220;2022-10-16T08:30:18;26.58;;;14.02;;
58468;SDS011;44257;44.804;10.220;2022-10-16T08:32:45;30.17;;;13.88;;
58468;SDS011;44257;44.804;10.220;2022-10-16T08:35:11;21.85;;;11.75;;
58468;SDS011;44257;44.804;10.220;2022-10-16T08:37:37;19.35;;;11.82;;
58468;SDS011;44257;44.804;10.220;2022-10-16T08:40:04;24.83;;;13.65;;
58468;SDS011;44257;44.804;10.220;2022-10-16T08:50:31;30.77;;;14.60;;
58468;SDS011;44257;44.804;10.220;2022-10-16T08:53:01;22.02;;;13.77;;
58468;SDS011;44257;44.804;10.220;2022-10-16T08:55:46;26.40;;;13.52;;
58468;SDS011;44257;44.804;10.220;2022-10-16T08:58:17;31.75;;;13.85;;
58468;SDS011;44257;44.804;10.220;2022-10-16T09:00:44;18.42;;;11.95;;
58468;SDS011;44257;44.804;10.220;2022-10-16T09:08:59;23.30;;;12.95;;
58468;SDS011;44257;44.804;10.220;2022-10-16T09:17:30;25.05;;;12.82;;
58468;SDS011;44257;44.804;10.220;2022-10-16T09:22:42;24.25;;;12.82;;
58468;SDS011;44257;44.804;10.220;2022-10-16T09:25:12;20.73;;;11.73;;
58468;SDS011;44257;44.804;10.220;2022-10-16T09:27:40;25.30;;;13.07;;
58468;SDS011;44257;44.804;10.220;2022-10-16T09:30:14;19.95;;;11.80;;
58468;SDS011;44257;44.804;10.220;2022-10-16T09:32:42;17.77;;;11.25;;
58468;SDS011;44257;44.804;10.220;2022-10-16T09:35:19;18.85;;;12.32;;
58468;SDS011;44257;44.804;10.220;2022-10-16T09:37:48;25.80;;;12.88;;
58468;SDS011;44257;44.804;10.220;2022-10-16T09:43:24;24.38;;;12.70;;
58468;SDS011;44257;44.804;10.220;2022-10-16T09:45:53;23.65;;;13.48;;
58468;SDS011;44257;44.804;10.220;2022-10-16T09:53:59;25.70;;;14.68;;
58468;SDS011;44257;44.804;10.220;2022-10-16T09:56:30;23.08;;;11.77;;
58468;SDS011;44257;44.804;10.220;2022-10-16T09:58:59;24.63;;;13.57;;
58468;SDS011;44257;44.804;10.220;2022-10-16T10:01:35;25.35;;;14.50;;
58468;SDS011;44257;44.804;10.220;2022-10-16T10:04:03;30.70;;;15.45;;
58468;SDS011;44257;44.804;10.220;2022-10-16T10:06:34;29.13;;;12.65;;
58468;SDS011;44257;44.804;10.220;2022-10-16T10:16:46;22.15;;;12.27;;
58468;SDS011;44257;44.804;10.220;2022-10-16T10:19:16;22.10;;;11.65;;
58468;SDS011;44257;44.804;10.220;2022-10-16T10:21:47;24.83;;;13.20;;
58468;SDS011;44257;44.804;10.220;2022-10-16T10:24:15;18.77;;;10.35;;
58468;SDS011;44257;44.804;10.220;2022-10-16T10:26:45;24.60;;;12.23;;
58468;SDS011;44257;44.804;10.220;2022-10-16T10:29:42;17.75;;;10.50;;
58468;SDS011;44257;44.804;10.220;2022-10-16T10:32:39;17.33;;;9.60;;
58468;SDS011;44257;44.804;10.220;2022-10-16T10:40:52;24.00;;;13.02;;
58468;SDS011;44257;44.804;10.220;2022-10-16T10:46:19;29.88;;;11.70;;
58468;SDS011;44257;44.804;10.220;2022-10-16T10:54:49;18.85;;;9.60;;
58468;SDS011;44257;44.804;10.220;2022-10-16T10:57:24;14.93;;;9.95;;
58468;SDS011;44257;44.804;10.220;2022-10-16T11:00:00;20.60;;;10.43;;
58468;SDS011;44257;44.804;10.220;2022-10-16T11:05:26;17.77;;;9.27;;
58468;SDS011;44257;44.804;10.220;2022-10-16T11:11:23;15.75;;;9.13;;
58468;SDS011;44257;44.804;10.220;2022-10-16T11:16:39;21.05;;;10.98;;
58468;SDS011;44257;44.804;10.220;2022-10-16T11:21:54;18.00;;;10.30;;
58468;SDS011;44257;44.804;10.220;2022-10-16T11:24:53;20.70;;;11.30;;
58468;SDS011;44257;44.804;10.220;2022-10-16T11:27:35;19.13;;;11.73;;
58468;SDS011;44257;44.804;10.220;2022-10-16T11:30:02;21.10;;;10.88;;
58468;SDS011;44257;44.804;10.220;2022-10-16T11:32:34;21.05;;;10.05;;
58468;SDS011;44257;44.804;10.220;2022-10-16T11:35:14;19.10;;;10.25;;
58468;SDS011;44257;44.804;10.220;2022-10-16T11:37:47;21.77;;;10.70;;
58468;SDS011;44257;44.804;10.220;2022-10-16T11:40:21;20.20;;;8.82;;
58468;SDS011;44257;44.804;10.220;2022-10-16T11:42:54;22.98;;;11.38;;
58468;SDS011;44257;44.804;10.220;2022-10-16T11:45:35;16.40;;;9.77;;
58468;SDS011;44257;44.804;10.220;2022-10-16T11:53:21;19.75;;;11.18;;
58468;SDS011;44257;44.804;10.220;2022-10-16T11:56:24;22.15;;;12.70;;
58468;SDS011;44257;44.804;10.220;2022-10-16T12:01:43;24.02;;;13.23;;
58468;SDS011;44257;44.804;10.220;2022-10-16T12:04:25;26.38;;;11.50;;
58468;SDS011;44257;44.804;10.220;2022-10-16T12:07:18;18.20;;;10.68;;
58468;SDS011;44257;44.804;10.220;2022-10-16T12:09:48;27.58;;;14.88;;
58468;SDS011;44257;44.804;10.220;2022-10-16T12:17:52;23.13;;;13.25;;
58468;SDS011;44257;44.804;10.220;2022-10-16T12:20:26;25.55;;;13.90;;
58468;SDS011;44257;44.804;10.220;2022-10-16T12:22:59;20.20;;;11.77;;
58468;SDS011;44257;44.804;10.220;2022-10-16T12:25:31;24.67;;;12.88;;
58468;SDS011;44257;44.804;10.220;2022-10-16T12:28:07;22.35;;;12.02;;
58468;SDS011;44257;44.804;10.220;2022-10-16T12:30:52;22.75;;;12.25;;
58468;SDS011;44257;44.804;10.220;2022-10-16T12:35:50;25.83;;;12.80;;
58468;SDS011;44257;44.804;10.220;2022-10-16T12:38:27;30.42;;;12.93;;
58468;SDS011;44257;44.804;10.220;2022-10-16T12:41:07;19.30;;;11.82;;
58468;SDS011;44257;44.804;10.220;2022-10-16T12:43:35;20.60;;;10.82;;
58468;SDS011;44257;44.804;10.220;2022-10-16T12:48:35;21.75;;;11.60;;
58468;SDS011;44257;44.804;10.220;2022-10-16T12:51:09;16.20;;;9.75;;
58468;SDS011;44257;44.804;10.220;2022-10-16T12:56:45;17.65;;;11.52;;
58468;SDS011;44257;44.804;10.220;2022-10-16T13:02:17;22.50;;;10.73;;
58468;SDS011;44257;44.804;10.220;2022-10-16T13:13:11;18.13;;;9.50;;
58468;SDS011;44257;44.804;10.220;2022-10-16T13:22:11;13.23;;;8.10;;
58468;SDS011;44257;44.804;10.220;2022-10-16T13:33:02;13.45;;;6.82;;
58468;SDS011;44257;44.804;10.220;2022-10-16T13:35:46;13.98;;;6.80;;
58468;SDS011;44257;44.804;10.220;2022-10-16T13:38:18;12.90;;;7.72;;
58468;SDS011;44257;44.804;10.220;2022-10-16T13:46:22;7.82;;;4.55;;
58468;SDS011;44257;44.804;10.220;2022-10-16T13:48:56;10.43;;;5.78;;
58468;SDS011;44257;44.804;10.220;2022-10-16T13:51:23;12.52;;;6.68;;
58468;SDS011;44257;44.804;10.220;2022-10-16T13:53:49;10.48;;;5.72;;
58468;SDS011;44257;44.804;10.220;2022-10-16T13:56:19;13.95;;;7.80;;
58468;SDS011;44257;44.804;10.220;2022-10-16T13:59:01;10.07;;;5.07;;
58468;SDS011;44257;44.804;10.220;2022-10-16T14:01:29;9.38;;;5.22;;
58468;SDS011;44257;44.804;10.220;2022-10-16T14:04:02;11.60;;;6.25;;
58468;SDS011;44257;44.804;10.220;2022-10-16T14:06:32;11.25;;;6.10;;
58468;SDS011;44257;44.804;10.220;2022-10-16T14:09:07;14.20;;;7.60;;
58468;SDS011;44257;44.804;10.220;2022-10-16T14:11:50;13.02;;;7.68;;
58468;SDS011;44257;44.804;10.220;2022-10-16T14:14:19;11.20;;;6.05;;
58468;SDS011;44257;44.804;10.220;2022-10-16T14:16:46;11.80;;;6.97;;
58468;SDS011;44257;44.804;10.220;2022-10-16T14:19:15;13.75;;;8.18;;
58468;SDS011;44257;44.804;10.220;2022-10-16T14:21:48;15.90;;;7.07;;
58468;SDS011;44257;44.804;10.220;2022-10-16T14:24:49;15.23;;;7.78;;
58468;SDS011;44257;44.804;10.220;2022-10-16T14:29:50;10.43;;;5.88;;
58468;SDS011;44257;44.804;10.220;2022-10-16T14:32:22;13.73;;;7.85;;
58468;SDS011;44257;44.804;10.220;2022-10-16T14:34:53;15.68;;;6.75;;
58468;SDS011;44257;44.804;10.220;2022-10-16T14:37:22;13.90;;;6.43;;
58468;SDS011;44257;44.804;10.220;2022-10-16T14:39:52;11.95;;;5.80;;
58468;SDS011;44257;44.804;10.220;2022-10-16T14:42:20;11.40;;;6.68;;
58468;SDS011;44257;44.804;10.220;2022-10-16T14:44:50;11.52;;;5.63;;
58468;SDS011;44257;44.804;10.220;2022-10-16T14:47:20;12.18;;;6.95;;
58468;SDS011;44257;44.804;10.220;2022-10-16T14:49:51;11.83;;;6.97;;
58468;SDS011;44257;44.804;10.220;2022-10-16T14:52:19;10.90;;;6.15;;
58468;SDS011;44257;44.804;10.220;2022-10-16T14:54:49;10.45;;;5.57;;
58468;SDS011;44257;44.804;10.220;2022-10-16T14:57:16;7.78;;;4.43;;
58468;SDS011;44257;44.804;10.220;2022-10-16T14:59:44;10.40;;;5.38;;
58468;SDS011;44257;44.804;10.220;2022-10-16T15:02:16;10.65;;;6.05;;
58468;SDS011;44257;44.804;10.220;2022-10-16T15:04:57;9.70;;;4.75;;
58468;SDS011;44257;44.804;10.220;2022-10-16T15:07:30;9.65;;;5.18;;
58468;SDS011;44257;44.804;10.220;2022-10-16T15:09:56;8.20;;;4.78;;
58468;SDS011;44257;44.804;10.220;2022-10-16T15:12:23;10.43;;;4.97;;
58468;SDS011;44257;44.804;10.220;2022-10-16T15:14:49;12.63;;;5.05;;
58468;SDS011;44257;44.804;10.220;2022-10-16T15:17:15;11.63;;;4.30;;
58468;SDS011;44257;44.804;10.220;2022-10-16T15:19:40;11.98;;;6.28;;
58468;SDS011;44257;44.804;10.220;2022-10-16T15:22:08;7.95;;;4.93;;
58468;SDS011;44257;44.804;10.220;2022-10-16T15:24:36;9.77;;;5.40;;
58468;SDS011;44257;44.804;10.220;2022-10-16T15:27:02;9.63;;;5.32;;
58468;SDS011;44257;44.804;10.220;2022-10-16T15:29:28;8.60;;;5.00;;
58468;SDS011;44257;44.804;10.220;2022-10-16T15:31:54;10.00;;;5.25;;
58468;SDS011;44257;44.804;10.220;2022-10-16T15:34:20;13.93;;;5.18;;
58468;SDS011;44257;44.804;10.220;2022-10-16T15:36:45;10.40;;;5.72;;
58468;SDS011;44257;44.804;10.220;2022-10-16T15:39:12;10.00;;;5.65;;
58468;SDS011;44257;44.804;10.220;2022-10-16T15:41:40;14.30;;;5.05;;
58468;SDS011;44257;44.804;10.220;2022-10-16T15:44:06;7.80;;;4.05;;
58468;SDS011;44257;44.804;10.220;2022-10-16T15:46:32;8.45;;;4.60;;
58468;SDS011;44257;44.804;10.220;2022-10-16T15:48:59;10.10;;;5.25;;
58468;SDS011;44257;44.804;10.220;2022-10-16T15:51:26;8.55;;;4.43;;
58468;SDS011;44257;44.804;10.220;2022-10-16T15:53:57;9.50;;;4.68;;
58468;SDS011;44257;44.804;10.220;2022-10-16T15:56:26;9.63;;;5.03;;
58468;SDS011;44257;44.804;10.220;2022-10-16T15:58:53;7.88;;;4.75;;
58468;SDS011;44257;44.804;10.220;2022-10-16T16:01:20;6.60;;;4.20;;
58468;SDS011;44257;44.804;10.220;2022-10-16T16:03:46;7.38;;;3.10;;
58468;SDS011;44257;44.804;10.220;2022-10-16T16:06:13;6.05;;;4.13;;
58468;SDS011;44257;44.804;10.220;2022-10-16T16:08:39;6.97;;;3.40;;
58468;SDS011;44257;44.804;10.220;2022-10-16T16:11:12;5.88;;;3.50;;
58468;SDS011;44257;44.804;10.220;2022-10-16T16:13:40;5.13;;;2.55;;
58468;SDS011;44257;44.804;10.220;2022-10-16T16:16:07;5.95;;;3.42;;
58468;SDS011;44257;44.804;10.220;2022-10-16T16:18:35;6.90;;;3.72;;
58468;SDS011;44257;44.804;10.220;2022-10-16T16:21:01;5.65;;;3.28;;
58468;SDS011;44257;44.804;10.220;2022-10-16T16:23:27;5.85;;;3.10;;
58468;SDS011;44257;44.804;10.220;2022-10-16T16:26:03;5.70;;;2.45;;
58468;SDS011;44257;44.804;10.220;2022-10-16T16:28:30;6.97;;;2.75;;
58468;SDS011;44257;44.804;10.220;2022-10-16T16:30:56;5.28;;;2.95;;
58468;SDS011;44257;44.804;10.220;2022-10-16T16:33:22;11.40;;;4.18;;
58468;SDS011;44257;44.804;10.220;2022-10-16T16:35:49;5.97;;;3.15;;
58468;SDS011;44257;44.804;10.220;2022-10-16T16:38:15;5.20;;;3.75;;
58468;SDS011;44257;44.804;10.220;2022-10-16T16:40:40;4.38;;;2.25;;
58468;SDS011;44257;44.804;10.220;2022-10-16T16:43:06;5.97;;;3.08;;
58468;SDS011;44257;44.804;10.220;2022-10-16T16:45:36;3.55;;;2.28;;
58468;SDS011;44257;44.804;10.220;2022-10-16T16:48:01;6.72;;;3.35;;
58468;SDS011;44257;44.804;10.220;2022-10-16T16:50:27;9.30;;;3.97;;
58468;SDS011;44257;44.804;10.220;2022-10-16T16:52:53;8.23;;;3.60;;
58468;SDS011;44257;44.804;10.220;2022-10-16T16:55:19;7.97;;;3.63;;
58468;SDS011;44257;44.804;10.220;2022-10-16T16:57:47;10.15;;;4.00;;